Time;durP1;ratioP1;P1;durP2;ratioP2;P2;SDS_P1;SDS_P2;PMS_P1;PMS_P2;Temp;Humidity;BMP_temperature;BMP_pressure;BME280_temperature;BME280_humidity;BME280_pressure;Samples;Min_cycle;Max_cycle;Signal;HPM_P1;HPM_P2
2021/04/01 08:03:00;;;;;;;26.40;9.75;;;23.40;86.90;;;;;;4871490;29;20259;-68
2021/04/01 08:05:26;;;;;;;21.10;9.50;;;23.80;86.40;;;;;;4862372;29;20215;-67
2021/04/01 08:07:55;;;;;;;23.42;10.63;;;24.10;87.50;;;;;;4879897;29;20238;-67
2021/04/01 08:10:21;;;;;;;24.00;10.45;;;24.20;85.00;;;;;;4880022;29;20211;-68
2021/04/01 08:12:49;;;;;;;28.60;11.32;;;24.60;82.90;;;;;;4880152;29;20211;-67
2021/04/01 08:15:17;;;;;;;24.50;10.52;;;24.80;81.00;;;;;;4876504;29;20587;-70
2021/04/01 08:17:48;;;;;;;30.23;11.75;;;24.90;81.60;;;;;;4878085;29;20745;-72
2021/04/01 08:20:16;;;;;;;30.48;10.95;;;25.00;80.10;;;;;;4878993;29;20212;-72
2021/04/01 08:22:47;;;;;;;26.17;10.82;;;25.30;80.40;;;;;;4878089;29;20211;-70
2021/04/01 08:25:16;;;;;;;27.58;10.95;;;25.50;78.60;;;;;;4877305;29;20270;-69
2021/04/01 08:27:47;;;;;;;29.50;11.55;;;25.70;77.40;;;;;;4877806;29;20276;-72
2021/04/01 08:31:04;;;;;;;29.05;11.95;;;25.80;77.00;;;;;;4875189;29;20267;-72
2021/04/01 08:33:22;;;;;;;31.08;13.05;;;25.70;76.90;;;;;;4878143;29;20222;-74
2021/04/01 08:35:50;;;;;;;27.55;12.35;;;25.50;75.00;;;;;;4877850;29;20666;-69
2021/04/01 08:38:18;;;;;;;30.42;12.70;;;25.00;75.30;;;;;;4879323;29;20246;-67
2021/04/01 08:40:44;;;;;;;31.33;12.35;;;24.70;76.40;;;;;;4879303;29;20255;-67
2021/04/01 08:43:54;;;;;;;32.67;13.57;;;24.60;77.60;;;;;;4879469;29;20274;-67
2021/04/01 08:46:52;;;;;;;34.20;13.93;;;24.90;77.00;;;;;;4879263;29;20219;-67
2021/04/01 08:49:31;;;;;;;34.38;13.20;;;24.50;76.50;;;;;;4869300;29;20227;-69
2021/04/01 08:52:23;;;;;;;33.67;14.48;;;24.40;77.90;;;;;;4878813;29;20221;-69
2021/04/01 08:54:52;;;;;;;34.63;13.10;;;24.40;72.60;;;;;;4877198;29;20246;-69
2021/04/01 08:57:19;;;;;;;36.60;14.15;;;24.20;73.30;;;;;;4878467;29;20215;-68
2021/04/01 08:59:48;;;;;;;41.40;14.95;;;23.80;74.00;;;;;;4879059;29;20220;-69
2021/04/01 09:02:22;;;;;;;40.88;15.50;;;22.90;76.90;;;;;;4878677;29;20263;-69
2021/04/01 09:04:51;;;;;;;38.60;15.70;;;22.90;77.00;;;;;;4879486;29;20283;-68
2021/04/01 09:07:24;;;;;;;43.30;15.88;;;22.80;75.00;;;;;;4879638;29;20215;-71
2021/04/01 09:09:52;;;;;;;38.90;14.10;;;22.70;76.00;;;;;;4879435;29;20211;-76
2021/04/01 09:12:26;;;;;;;40.33;15.52;;;22.70;77.70;;;;;;4879853;29;20263;-70
2021/04/01 09:14:59;;;;;;;38.83;15.23;;;22.50;79.70;;;;;;4879719;29;20239;-71
2021/04/01 09:17:31;;;;;;;33.58;14.07;;;22.30;81.50;;;;;;4879666;29;20222;-71
2021/04/01 09:19:58;;;;;;;37.22;12.77;;;22.30;82.20;;;;;;4879706;29;20215;-71
2021/04/01 09:22:26;;;;;;;36.42;12.88;;;22.50;82.60;;;;;;4879931;29;20237;-71
2021/04/01 09:24:56;;;;;;;33.17;12.80;;;22.70;81.40;;;;;;4879265;29;20303;-71
2021/04/01 09:27:22;;;;;;;35.08;14.10;;;22.90;81.20;;;;;;4879320;29;20667;-71
2021/04/01 09:29:49;;;;;;;30.23;12.25;;;23.00;80.90;;;;;;4879551;29;20375;-71
2021/04/01 09:32:16;;;;;;;29.65;11.88;;;23.00;81.30;;;;;;4879191;29;20215;-71
2021/04/01 09:34:48;;;;;;;32.20;12.55;;;22.90;82.20;;;;;;4879476;29;20290;-71
2021/04/01 09:37:15;;;;;;;28.15;11.73;;;22.40;82.10;;;;;;4879510;29;20604;-72
2021/04/01 09:39:42;;;;;;;32.50;12.02;;;21.80;82.90;;;;;;4879297;29;20674;-71
2021/04/01 09:42:11;;;;;;;31.48;11.63;;;21.40;84.20;;;;;;4879248;29;20222;-72
2021/04/01 09:44:48;;;;;;;32.30;11.63;;;21.30;83.00;;;;;;4879043;29;20215;-72
2021/04/01 09:47:20;;;;;;;30.38;11.45;;;21.30;82.40;;;;;;4878510;29;20293;-71
2021/04/01 09:49:54;;;;;;;30.67;10.07;;;21.20;84.20;;;;;;4879143;29;20567;-71
2021/04/01 09:52:26;;;;;;;27.63;10.00;;;21.30;83.30;;;;;;4878776;29;20709;-71
2021/04/01 09:54:55;;;;;;;29.45;10.85;;;21.30;83.90;;;;;;4878623;29;20260;-70
2021/04/01 09:57:25;;;;;;;29.48;10.23;;;21.10;84.60;;;;;;4879089;29;20701;-71
2021/04/01 10:00:08;;;;;;;30.20;11.50;;;20.90;85.00;;;;;;4879299;29;20219;-71
2021/04/01 10:02:40;;;;;;;29.25;10.93;;;20.80;85.90;;;;;;4879109;29;20246;-72
2021/04/01 10:05:11;;;;;;;26.10;9.52;;;20.70;85.80;;;;;;4879538;29;20222;-72
2021/04/01 10:07:50;;;;;;;29.27;10.10;;;20.70;86.40;;;;;;4878873;29;20238;-72
2021/04/01 10:10:28;;;;;;;32.15;10.93;;;20.80;85.40;;;;;;4879126;29;20210;-71
2021/04/01 10:12:55;;;;;;;21.48;8.73;;;20.90;85.80;;;;;;4879057;29;20230;-71
2021/04/01 10:15:29;;;;;;;30.25;9.80;;;21.10;86.00;;;;;;4878861;29;20239;-71
2021/04/01 10:17:56;;;;;;;26.33;9.75;;;21.20;84.80;;;;;;4878453;29;20724;-70
2021/04/01 10:20:24;;;;;;;28.80;10.90;;;21.30;84.40;;;;;;4879067;29;20215;-72
2021/04/01 10:22:50;;;;;;;26.33;10.77;;;21.30;83.40;;;;;;4882791;29;20211;-71
2021/04/01 10:25:20;;;;;;;24.95;10.02;;;21.40;85.30;;;;;;4883005;29;20210;-71
2021/04/01 10:27:54;;;;;;;25.50;9.75;;;21.50;84.90;;;;;;4883044;29;20313;-72
2021/04/01 10:30:22;;;;;;;28.58;9.65;;;21.40;84.90;;;;;;4882869;29;20297;-72
2021/04/01 10:32:54;;;;;;;31.52;11.57;;;21.40;85.60;;;;;;4883003;29;20275;-77
2021/04/01 10:35:25;;;;;;;26.63;10.85;;;21.40;86.20;;;;;;4882797;29;20268;-71
2021/04/01 10:37:55;;;;;;;33.00;11.40;;;21.50;86.60;;;;;;4882535;29;20826;-70
2021/04/01 10:40:22;;;;;;;30.42;11.15;;;21.90;86.80;;;;;;4882533;29;20215;-70
2021/04/01 10:42:50;;;;;;;30.58;10.75;;;21.90;85.10;;;;;;4882322;29;20219;-70
2021/04/01 10:45:20;;;;;;;32.00;11.98;;;21.90;85.00;;;;;;4882730;29;20238;-72
2021/04/01 10:47:56;;;;;;;30.35;11.15;;;21.90;84.70;;;;;;4882647;29;20231;-72
2021/04/01 10:50:24;;;;;;;30.25;11.48;;;22.10;84.50;;;;;;4882620;29;20225;-72
2021/04/01 10:52:50;;;;;;;26.60;10.38;;;22.10;84.50;;;;;;4882259;29;20215;-72
2021/04/01 10:55:16;;;;;;;30.55;11.98;;;22.10;85.30;;;;;;4882394;29;20243;-72
2021/04/01 10:57:43;;;;;;;34.30;12.45;;;22.20;85.40;;;;;;4882155;29;20235;-72
2021/04/01 11:00:12;;;;;;;26.20;10.80;;;22.50;84.10;;;;;;4882000;29;20671;-72
2021/04/01 11:02:41;;;;;;;42.55;12.13;;;22.50;84.30;;;;;;4882221;29;20211;-73
2021/04/01 11:05:10;;;;;;;30.80;11.63;;;22.60;85.30;;;;;;4882113;29;20307;-73
2021/04/01 11:07:46;;;;;;;27.73;11.82;;;22.70;83.80;;;;;;4882137;29;20231;-73
2021/04/01 11:10:19;;;;;;;29.58;10.77;;;22.70;83.30;;;;;;4881988;29;21064;-71
2021/04/01 11:12:50;;;;;;;26.08;9.52;;;22.70;83.10;;;;;;4882339;29;20223;-72
2021/04/01 11:15:18;;;;;;;22.70;9.82;;;22.80;83.10;;;;;;4881944;29;20263;-72
2021/04/01 11:17:47;;;;;;;22.08;8.82;;;22.70;82.20;;;;;;4881981;29;20242;-72
2021/04/01 11:20:17;;;;;;;21.23;8.75;;;22.60;82.60;;;;;;4882135;29;20384;-72
2021/04/01 11:22:59;;;;;;;21.08;8.50;;;22.40;83.60;;;;;;4881764;29;20231;-72
2021/04/01 11:25:26;;;;;;;24.67;8.38;;;22.30;83.60;;;;;;4881822;29;20218;-72
2021/04/01 11:27:52;;;;;;;21.25;7.40;;;22.20;84.30;;;;;;4881433;29;20742;-72
2021/04/01 11:30:19;;;;;;;23.48;7.18;;;22.20;85.40;;;;;;4881594;29;20570;-72
2021/04/01 11:32:52;;;;;;;15.13;6.20;;;22.00;85.40;;;;;;4881584;29;20215;-72
2021/04/01 11:35:22;;;;;;;15.32;5.28;;;22.00;86.90;;;;;;4881754;29;20606;-72
2021/04/01 11:37:51;;;;;;;15.07;5.57;;;22.00;86.10;;;;;;4881711;29;20231;-72
2021/04/01 11:40:19;;;;;;;12.23;5.55;;;22.00;87.40;;;;;;4881593;29;20217;-72
2021/04/01 11:42:55;;;;;;;16.08;6.50;;;21.90;87.20;;;;;;4881630;29;20215;-72
2021/04/01 11:45:33;;;;;;;11.82;5.13;;;21.90;87.30;;;;;;4881645;29;20225;-72
2021/04/01 11:48:02;;;;;;;21.83;5.68;;;22.10;87.90;;;;;;4881285;29;20705;-71
2021/04/01 11:50:29;;;;;;;13.25;5.07;;;22.20;88.10;;;;;;4881527;29;20624;-70
2021/04/01 11:52:59;;;;;;;13.25;4.93;;;22.10;88.00;;;;;;4881359;29;20216;-69
2021/04/01 11:55:26;;;;;;;12.50;4.50;;;22.00;88.50;;;;;;4881429;29;20239;-71
2021/04/01 11:57:53;;;;;;;17.42;6.30;;;22.00;88.90;;;;;;4881286;29;20239;-71
2021/04/01 12:00:26;;;;;;;14.98;6.32;;;22.00;89.30;;;;;;4881428;29;20218;-69
2021/04/01 12:02:58;;;;;;;17.08;6.40;;;22.00;90.30;;;;;;4881158;29;20746;-69
2021/04/01 12:05:27;;;;;;;15.30;5.60;;;22.00;90.70;;;;;;4881195;29;20567;-70
2021/04/01 12:07:54;;;;;;;21.13;7.00;;;21.90;90.50;;;;;;4880062;29;20571;-68
2021/04/01 12:10:21;;;;;;;20.23;7.22;;;22.10;90.50;;;;;;4880995;29;20744;-67
2021/04/01 12:12:52;;;;;;;18.45;6.65;;;22.10;90.20;;;;;;4881201;29;20222;-68
2021/04/01 12:15:29;;;;;;;19.92;7.68;;;22.20;90.00;;;;;;4880786;29;20238;-68
2021/04/01 12:17:55;;;;;;;22.60;8.48;;;22.20;90.40;;;;;;4880767;29;20270;-67
2021/04/01 12:20:23;;;;;;;25.63;9.43;;;22.20;90.80;;;;;;4880780;29;20215;-68
2021/04/01 12:22:49;;;;;;;19.90;8.48;;;22.30;90.80;;;;;;4881126;29;20214;-69
2021/04/01 12:25:18;;;;;;;22.83;9.88;;;22.10;90.30;;;;;;4880680;29;20203;-69
2021/04/01 12:27:50;;;;;;;27.55;10.98;;;22.10;90.80;;;;;;4880120;29;20594;-69
2021/04/01 12:30:27;;;;;;;27.75;10.25;;;22.00;91.50;;;;;;4880946;29;20575;-69
2021/04/01 12:32:53;;;;;;;25.42;10.07;;;21.90;91.60;;;;;;4880761;29;20211;-69
2021/04/01 12:35:21;;;;;;;28.30;10.10;;;21.80;91.10;;;;;;4880405;29;20600;-70
2021/04/01 12:38:06;;;;;;;24.15;10.63;;;21.80;91.60;;;;;;4880505;29;20235;-69
2021/04/01 12:40:38;;;;;;;22.63;10.77;;;22.00;92.20;;;;;;4880856;29;20213;-68
2021/04/01 12:43:07;;;;;;;29.35;12.27;;;22.00;91.40;;;;;;4880296;29;20208;-69
2021/04/01 12:45:34;;;;;;;31.75;12.52;;;22.10;91.40;;;;;;4879985;29;20219;-69
2021/04/01 12:48:14;;;;;;;32.20;12.23;;;22.10;91.50;;;;;;4880007;29;20231;-72
2021/04/01 12:50:42;;;;;;;34.35;13.32;;;22.00;91.30;;;;;;4880115;29;20222;-69
2021/04/01 12:53:09;;;;;;;27.73;11.43;;;21.90;91.60;;;;;;4880449;29;20219;-69
2021/04/01 12:55:45;;;;;;;31.30;11.77;;;21.80;91.60;;;;;;4880342;29;20238;-69
2021/04/01 12:58:36;;;;;;;25.02;10.50;;;21.90;91.40;;;;;;4879853;29;20231;-71
2021/04/01 13:01:16;;;;;;;27.20;12.48;;;22.00;91.60;;;;;;4880356;29;20237;-70
2021/04/01 13:03:42;;;;;;;35.38;14.38;;;22.00;91.80;;;;;;4879617;29;20294;-71
2021/04/01 13:06:12;;;;;;;33.00;12.90;;;21.90;91.70;;;;;;4880378;29;20226;-69
2021/04/01 13:11:23;;;;;;;36.90;13.43;;;21.70;92.00;;;;;;4880330;29;20242;-76
2021/04/01 13:13:51;;;;;;;37.08;13.52;;;21.70;91.60;;;;;;4880065;29;20218;-79
2021/04/01 13:16:18;;;;;;;30.25;13.52;;;21.70;91.50;;;;;;4880359;29;20211;-72
2021/04/01 13:18:44;;;;;;;36.03;13.50;;;21.60;91.70;;;;;;4879791;29;20235;-74
2021/04/01 13:21:30;;;;;;;31.48;13.20;;;21.70;91.70;;;;;;4879673;29;20271;-74
2021/04/01 13:24:06;;;;;;;32.80;12.55;;;21.70;91.50;;;;;;4880079;29;20682;-74
2021/04/01 13:26:34;;;;;;;32.08;13.80;;;21.70;91.90;;;;;;4880207;29;20218;-78
2021/04/01 13:29:03;;;;;;;28.92;12.95;;;21.60;91.20;;;;;;4876857;29;20227;-77
2021/04/01 13:31:38;;;;;;;36.90;14.40;;;21.40;91.70;;;;;;4879612;29;20258;-71
2021/04/01 13:34:08;;;;;;;32.50;14.52;;;21.40;91.70;;;;;;4879923;29;20270;-69
2021/04/01 13:36:38;;;;;;;32.20;15.35;;;21.40;91.30;;;;;;4880169;29;20298;-72
2021/04/01 13:39:07;;;;;;;33.33;14.18;;;21.20;91.40;;;;;;4879761;29;20231;-74
2021/04/01 13:41:46;;;;;;;33.08;15.13;;;21.10;91.90;;;;;;4880563;29;20726;-79
2021/04/01 13:44:13;;;;;;;35.38;14.23;;;21.10;92.10;;;;;;4879728;29;20578;-72
2021/04/01 13:46:41;;;;;;;28.25;14.13;;;21.10;91.90;;;;;;4879569;29;20301;-73
2021/04/01 13:49:11;;;;;;;38.87;15.73;;;21.00;92.30;;;;;;4880585;29;20766;-73
2021/04/01 13:51:38;;;;;;;30.70;14.33;;;20.90;92.30;;;;;;4880109;29;20211;-71
2021/04/01 13:57:06;;;;;;;31.57;14.90;;;20.80;92.90;;;;;;4880834;29;20218;-72
2021/04/01 13:59:41;;;;;;;29.43;13.80;;;20.60;93.10;;;;;;4880449;29;20322;-74
2021/04/01 14:10:33;;;;;;;27.63;10.83;;;20.30;93.30;;;;;;4879135;29;20255;-73
2021/04/01 14:13:02;;;;;;;23.67;9.67;;;20.20;93.20;;;;;;4879464;29;20244;-72
2021/04/01 14:15:29;;;;;;;22.33;9.70;;;20.10;93.20;;;;;;4875753;29;20239;-77
2021/04/01 14:17:56;;;;;;;23.73;9.70;;;20.10;93.10;;;;;;4874747;29;20718;-69
2021/04/01 14:20:23;;;;;;;17.90;8.30;;;19.90;93.50;;;;;;4878070;29;20218;-72
2021/04/01 14:22:50;;;;;;;20.43;8.50;;;19.80;93.00;;;;;;4877280;29;20219;-72
2021/04/01 14:25:31;;;;;;;18.40;8.10;;;19.80;93.30;;;;;;4876718;29;20243;-71
2021/04/01 14:28:02;;;;;;;19.47;8.23;;;19.80;93.60;;;;;;4877636;29;20294;-71
2021/04/01 14:30:32;;;;;;;20.43;7.43;;;19.80;93.80;;;;;;4878998;29;20211;-72
2021/04/01 14:33:00;;;;;;;15.43;7.10;;;19.80;93.10;;;;;;4879095;29;20211;-71
2021/04/01 14:35:27;;;;;;;19.57;7.67;;;19.80;92.90;;;;;;4879018;29;20583;-71
2021/04/01 14:37:56;;;;;;;15.63;7.00;;;19.80;93.10;;;;;;4878889;29;20255;-71
2021/04/01 14:40:26;;;;;;;14.50;6.17;;;19.70;93.60;;;;;;4878760;29;20692;-71
2021/04/01 14:42:54;;;;;;;12.57;5.83;;;19.70;94.00;;;;;;4878915;29;20358;-71
2021/04/01 14:45:21;;;;;;;16.17;5.70;;;19.70;93.40;;;;;;4879207;29;20674;-71
2021/04/01 14:47:48;;;;;;;16.30;5.97;;;19.60;93.70;;;;;;4878994;29;20275;-71
2021/04/01 14:50:16;;;;;;;15.17;6.10;;;19.60;93.60;;;;;;4879018;29;20283;-72
2021/04/01 14:52:43;;;;;;;13.07;5.53;;;19.50;93.60;;;;;;4879058;29;20216;-71
2021/04/01 14:55:11;;;;;;;25.03;6.47;;;19.30;93.90;;;;;;4878778;29;20245;-71
2021/04/01 14:57:40;;;;;;;21.13;6.67;;;19.20;93.80;;;;;;4879049;29;20238;-71
2021/04/01 15:00:09;;;;;;;20.67;7.67;;;19.20;94.30;;;;;;4878925;29;20215;-71
2021/04/01 15:02:35;;;;;;;16.03;6.30;;;19.20;94.50;;;;;;4878663;29;20218;-71
2021/04/01 15:05:04;;;;;;;15.57;6.40;;;19.20;94.50;;;;;;4878744;29;20229;-71
2021/04/01 15:07:32;;;;;;;15.33;6.73;;;19.10;94.70;;;;;;4880121;29;20222;-71
2021/04/01 15:10:02;;;;;;;17.60;6.20;;;19.20;94.80;;;;;;4882261;29;20694;-71
2021/04/01 15:12:29;;;;;;;14.27;6.73;;;19.10;94.60;;;;;;4882414;29;20251;-71
2021/04/01 15:14:55;;;;;;;11.60;5.60;;;19.00;94.50;;;;;;4882316;29;20249;-71
2021/04/01 15:17:22;;;;;;;13.57;6.30;;;19.00;94.80;;;;;;4881837;29;20705;-71
2021/04/01 15:19:51;;;;;;;17.13;6.57;;;19.10;95.10;;;;;;4882157;29;20222;-71
2021/04/01 15:22:18;;;;;;;18.77;5.83;;;19.20;94.80;;;;;;4882038;29;20226;-71
2021/04/01 15:24:44;;;;;;;12.93;5.20;;;19.20;93.80;;;;;;4881994;29;20212;-71
2021/04/01 15:27:12;;;;;;;18.27;5.50;;;19.10;93.90;;;;;;4882003;29;20218;-72
2021/04/01 15:29:38;;;;;;;11.77;4.90;;;18.90;94.20;;;;;;4882177;29;20235;-71
2021/04/01 15:32:05;;;;;;;9.70;4.10;;;18.80;93.90;;;;;;4881952;29;20695;-72
2021/04/01 15:34:31;;;;;;;11.73;4.37;;;18.80;93.70;;;;;;4881623;29;20243;-71
2021/04/01 15:36:58;;;;;;;10.63;4.30;;;18.70;93.70;;;;;;4881903;29;20670;-71
2021/04/01 15:39:25;;;;;;;10.43;3.90;;;18.70;94.10;;;;;;4881816;29;20235;-71
2021/04/01 15:41:51;;;;;;;10.27;3.50;;;18.70;94.60;;;;;;4881960;29;20222;-72
2021/04/01 15:44:18;;;;;;;8.87;3.37;;;18.60;94.50;;;;;;4881769;29;20223;-72
2021/04/01 15:46:44;;;;;;;7.17;3.00;;;18.60;94.70;;;;;;4881624;29;20211;-72
2021/04/01 15:49:10;;;;;;;10.53;3.20;;;18.70;94.80;;;;;;4881491;29;20227;-72
2021/04/01 15:51:36;;;;;;;7.40;2.70;;;18.60;94.70;;;;;;4881926;29;20215;-72
2021/04/01 15:54:03;;;;;;;8.77;2.50;;;18.50;95.00;;;;;;4881685;29;20211;-71
2021/04/01 15:56:30;;;;;;;8.97;2.40;;;18.50;95.40;;;;;;4881692;29;20215;-72
2021/04/01 15:58:56;;;;;;;7.57;2.73;;;18.40;95.50;;;;;;4881195;29;20231;-71
2021/04/01 16:01:23;;;;;;;10.33;2.67;;;18.30;95.70;;;;;;4881529;29;20223;-72
2021/04/01 16:03:49;;;;;;;5.20;2.10;;;18.30;96.10;;;;;;4881288;29;20218;-72
2021/04/01 16:06:15;;;;;;;6.50;1.97;;;18.20;96.00;;;;;;4881377;29;20211;-71
2021/04/01 16:08:41;;;;;;;11.63;2.73;;;18.00;95.80;;;;;;4881432;29;20245;-72
2021/04/01 16:11:08;;;;;;;6.17;1.93;;;17.90;95.90;;;;;;4880455;29;20223;-72
2021/04/01 16:13:36;;;;;;;12.80;3.20;;;17.80;96.40;;;;;;4881140;29;20215;-71
2021/04/01 16:16:03;;;;;;;9.17;2.40;;;17.70;96.90;;;;;;4880470;29;20235;-72
2021/04/01 16:18:29;;;;;;;4.53;2.10;;;17.60;96.50;;;;;;4880788;29;20232;-73
2021/04/01 16:20:55;;;;;;;7.73;2.17;;;17.50;96.70;;;;;;4881144;29;20215;-71
2021/04/01 16:23:23;;;;;;;7.70;2.40;;;17.50;97.00;;;;;;4881055;29;20215;-70
2021/04/01 16:25:50;;;;;;;8.17;1.70;;;17.40;97.40;;;;;;4880283;29;20693;-70
2021/04/01 16:28:16;;;;;;;6.33;1.97;;;17.30;97.60;;;;;;4880714;29;20329;-72
2021/04/01 16:30:43;;;;;;;5.90;2.43;;;17.20;97.80;;;;;;4880188;29;20215;-70
2021/04/01 16:33:11;;;;;;;10.57;2.23;;;17.00;98.20;;;;;;4880443;29;20671;-71
2021/04/01 16:35:38;;;;;;;6.00;1.70;;;16.90;98.50;;;;;;4880671;29;20239;-70
2021/04/01 16:38:05;;;;;;;7.47;1.70;;;16.80;98.20;;;;;;4880743;29;20232;-71
2021/04/01 16:40:32;;;;;;;6.93;1.90;;;16.80;98.60;;;;;;4880413;29;20362;-71
2021/04/01 16:42:58;;;;;;;9.17;1.83;;;16.90;98.90;;;;;;4880673;29;20252;-70
2021/04/01 16:45:24;;;;;;;6.20;2.07;;;16.80;98.70;;;;;;4880718;29;20211;-71
2021/04/01 16:47:52;;;;;;;7.77;1.83;;;16.80;98.90;;;;;;4880037;29;20717;-72
2021/04/01 16:50:21;;;;;;;4.20;1.60;;;16.50;99.00;;;;;;4880256;29;20306;-72
2021/04/01 16:53:03;;;;;;;5.80;1.67;;;16.50;98.90;;;;;;4880309;29;20211;-72
2021/04/01 16:55:32;;;;;;;4.30;1.83;;;16.40;99.30;;;;;;4880226;29;20291;-70
2021/04/01 16:57:58;;;;;;;7.07;1.80;;;16.40;99.50;;;;;;4880264;29;20227;-71
2021/04/01 17:00:26;;;;;;;5.50;1.50;;;16.30;99.40;;;;;;4880133;29;20707;-70
2021/04/01 17:02:53;;;;;;;9.40;1.80;;;16.20;99.70;;;;;;4880174;29;20218;-70
2021/04/01 17:05:19;;;;;;;5.00;2.60;;;16.10;99.90;;;;;;4880061;29;20215;-75
2021/04/01 17:07:46;;;;;;;7.60;1.83;;;15.90;99.90;;;;;;4879696;29;20426;-72
2021/04/01 17:10:12;;;;;;;3.43;1.43;;;15.90;99.90;;;;;;4879731;29;20222;-71
2021/04/01 17:12:39;;;;;;;3.90;1.30;;;15.80;99.90;;;;;;4879887;29;20215;-72
2021/04/01 17:15:07;;;;;;;3.77;1.40;;;15.80;99.90;;;;;;4879987;29;20247;-73
2021/04/01 17:17:36;;;;;;;3.53;1.37;;;15.70;99.90;;;;;;4879731;29;20215;-73
2021/04/01 17:20:06;;;;;;;5.33;1.50;;;15.70;99.90;;;;;;4879813;29;20215;-72
2021/04/01 17:22:32;;;;;;;4.03;1.50;;;15.70;99.90;;;;;;4879511;29;20256;-72
2021/04/01 17:24:59;;;;;;;2.13;1.30;;;15.60;99.90;;;;;;4879492;29;20211;-73
2021/04/01 17:27:25;;;;;;;3.37;1.50;;;15.50;99.90;;;;;;4879452;29;20211;-73
2021/04/01 17:29:51;;;;;;;4.70;1.20;;;15.50;99.90;;;;;;4879243;29;20219;-72
2021/04/01 17:32:17;;;;;;;8.30;1.80;;;15.50;99.90;;;;;;4878900;29;20217;-73
2021/04/01 17:34:43;;;;;;;4.80;1.90;;;15.40;99.90;;;;;;4879436;29;20238;-73
2021/04/01 17:37:10;;;;;;;6.67;2.07;;;15.40;99.90;;;;;;4879970;29;20674;-73
2021/04/01 17:39:37;;;;;;;3.37;1.50;;;15.40;99.90;;;;;;4879514;29;20242;-73
2021/04/01 17:42:05;;;;;;;4.17;1.93;;;15.30;99.90;;;;;;4879762;29;20215;-72
2021/04/01 17:44:31;;;;;;;5.17;1.57;;;15.20;99.90;;;;;;4879836;29;20257;-73
2021/04/01 17:46:58;;;;;;;3.20;1.37;;;15.20;99.90;;;;;;4879638;29;20223;-73
2021/04/01 17:49:24;;;;;;;5.20;1.40;;;15.00;99.90;;;;;;4879675;29;20286;-73
2021/04/01 17:51:51;;;;;;;4.83;1.70;;;14.80;99.90;;;;;;4879606;29;20263;-72
2021/04/01 17:54:18;;;;;;;7.67;1.40;;;14.80;99.90;;;;;;4879356;29;20215;-72
2021/04/01 17:56:46;;;;;;;5.70;2.00;;;14.70;99.90;;;;;;4879630;29;20211;-73
2021/04/01 17:59:17;;;;;;;6.40;1.20;;;14.50;99.90;;;;;;4879481;29;20325;-73
2021/04/01 18:01:45;;;;;;;4.50;1.30;;;14.40;99.90;;;;;;4879219;29;20219;-72
2021/04/01 18:26:23;;;;;;;10.20;1.40;;;13.40;99.90;;;;;;4879235;29;20229;-72
2021/04/01 18:28:53;;;;;;;3.70;1.50;;;13.30;99.90;;;;;;4879199;29;20695;-72
2021/04/01 18:31:34;;;;;;;5.87;1.33;;;13.20;99.90;;;;;;4879289;29;20263;-72
2021/04/01 18:34:06;;;;;;;4.17;1.40;;;13.20;99.90;;;;;;4879118;29;20229;-72
2021/04/01 18:36:40;;;;;;;4.60;1.40;;;13.10;99.90;;;;;;4879184;29;20242;-72
2021/04/01 18:39:13;;;;;;;9.00;1.50;;;13.00;99.90;;;;;;4879125;29;20235;-72
2021/04/01 18:41:49;;;;;;;7.03;1.20;;;13.00;99.90;;;;;;4879406;29;20214;-72
2021/04/01 18:44:15;;;;;;;4.77;1.20;;;12.90;99.90;;;;;;4882532;29;20239;-72
2021/04/01 18:46:48;;;;;;;5.93;1.47;;;12.80;99.90;;;;;;4882794;29;20347;-72
2021/04/01 18:49:21;;;;;;;9.87;1.33;;;12.70;99.90;;;;;;4882681;29;20663;-71
2021/04/01 18:51:49;;;;;;;5.90;1.50;;;12.70;99.90;;;;;;4882630;29;20766;-73
2021/04/01 18:54:18;;;;;;;5.53;1.23;;;12.40;99.90;;;;;;4882712;29;20238;-73
2021/04/01 18:56:48;;;;;;;7.30;1.30;;;12.40;99.90;;;;;;4882567;29;20215;-73
2021/04/01 18:59:16;;;;;;;4.07;1.10;;;12.30;99.90;;;;;;4882523;29;20307;-73
2021/04/01 19:01:55;;;;;;;5.13;1.53;;;12.30;99.90;;;;;;4882111;29;20215;-74
2021/04/01 19:04:24;;;;;;;5.27;1.47;;;12.30;99.90;;;;;;4882468;29;20210;-73
2021/04/01 19:06:53;;;;;;;6.33;0.97;;;12.20;99.90;;;;;;4882490;29;20215;-73
2021/04/01 19:09:22;;;;;;;7.60;1.20;;;12.20;99.90;;;;;;4882703;29;20364;-73
2021/04/01 19:22:58;;;;;;;6.23;1.47;;;11.80;99.90;;;;;;4873495;29;20211;-73
2021/04/01 19:25:25;;;;;;;4.53;1.10;;;11.70;99.90;;;;;;4883649;29;20663;-72
2021/04/01 19:27:52;;;;;;;7.80;1.30;;;11.60;99.90;;;;;;4882122;29;20571;-72
2021/04/01 19:30:20;;;;;;;2.40;1.00;;;11.60;99.90;;;;;;4883105;29;20674;-72
2021/04/01 19:32:47;;;;;;;4.47;0.90;;;11.60;99.90;;;;;;4883309;29;20236;-73
2021/04/01 19:35:15;;;;;;;7.27;1.50;;;11.60;99.90;;;;;;4883127;29;20243;-73
2021/04/01 19:37:42;;;;;;;9.57;1.30;;;11.50;99.90;;;;;;4882197;29;20238;-73
2021/04/01 19:40:10;;;;;;;9.73;1.40;;;11.40;99.90;;;;;;4882222;29;20215;-72
2021/04/01 19:42:42;;;;;;;7.50;1.00;;;11.40;99.90;;;;;;4882297;29;20215;-73
2021/04/01 19:45:12;;;;;;;5.33;1.13;;;11.10;99.90;;;;;;4882079;29;20566;-72
2021/04/01 19:47:39;;;;;;;10.60;1.97;;;11.10;99.90;;;;;;4881649;29;20259;-72
2021/04/01 19:50:08;;;;;;;7.37;1.30;;;10.90;99.90;;;;;;4883280;29;20230;-73
2021/04/01 19:52:35;;;;;;;5.10;1.40;;;10.90;99.90;;;;;;4882970;29;20223;-72
2021/04/01 19:55:06;;;;;;;7.00;1.30;;;11.00;99.90;;;;;;4882113;29;20235;-72
2021/04/01 19:57:33;;;;;;;6.73;1.47;;;11.00;99.90;;;;;;4883354;29;20215;-73
2021/04/01 20:00:00;;;;;;;6.93;1.33;;;11.00;99.90;;;;;;4882323;29;20587;-73
2021/04/01 20:02:28;;;;;;;5.20;1.73;;;11.00;99.90;;;;;;4882231;29;20679;-75
2021/04/01 20:04:54;;;;;;;8.20;1.23;;;11.00;99.90;;;;;;4881526;29;20698;-73
2021/04/01 20:07:20;;;;;;;6.87;1.23;;;10.90;99.90;;;;;;4881883;29;20212;-73
2021/04/01 20:09:46;;;;;;;6.97;1.23;;;10.90;99.90;;;;;;4881268;29;20219;-73
2021/04/01 20:12:14;;;;;;;6.30;1.20;;;10.70;99.90;;;;;;4881589;29;20207;-73
2021/04/01 20:14:40;;;;;;;11.93;2.00;;;10.60;99.90;;;;;;4881447;29;20246;-73
2021/04/01 20:17:08;;;;;;;10.10;1.33;;;10.40;99.90;;;;;;4881328;29;20215;-73
2021/04/01 20:19:36;;;;;;;7.67;2.10;;;10.30;99.90;;;;;;4881066;29;20238;-73
2021/04/01 20:22:03;;;;;;;5.87;1.50;;;10.30;99.90;;;;;;4881211;29;20211;-72
2021/04/01 20:24:29;;;;;;;10.10;1.37;;;10.40;99.90;;;;;;4877975;29;20211;-70
2021/04/01 20:26:55;;;;;;;10.07;1.40;;;10.30;99.90;;;;;;4878646;29;20667;-75
